Time,TemperatureF,DewpointF,PressureIn,WindDirection,WindDirectionDegrees,WindSpeedMPH,WindSpeedGustMPH,Humidity,HourlyPrecipIn,Conditions,Clouds,dailyrainin,SoftwareType,DateUTC
2013-10-19 00:22:00,38.0,18.0,-100.00,SW,224,5.0,9.0,44,0.00,,,0.00,,2013-10-19 06:22:00,
2013-10-19 00:32:00,38.0,18.0,-100.00,SW,224,5.0,9.0,44,0.00,,,0.00,,2013-10-19 06:32:00,
2013-10-19 01:21:00,38.0,18.0,-100.00,SW,219,5.0,9.0,43,0.00,,,0.00,,2013-10-19 07:21:00,
2013-10-19 01:32:00,38.0,18.0,-100.00,SW,219,5.0,9.0,43,0.00,,,0.00,,2013-10-19 07:32:00,
2013-10-19 02:22:00,37.0,20.0,-100.00,SSW,193,3.0,8.0,50,0.00,,,0.00,,2013-10-19 08:22:00,
2013-10-19 02:32:00,37.0,20.0,-100.00,SSW,193,3.0,8.0,50,0.00,,,0.00,,2013-10-19 08:32:00,
2013-10-19 03:54:00,35.0,21.0,-100.00,ESE,113,1.0,3.0,57,0.00,,,0.00,,2013-10-19 09:54:00,
2013-10-19 04:03:00,35.0,21.0,-100.00,ESE,113,1.0,3.0,57,0.00,,,0.00,,2013-10-19 10:03:00,
2013-10-19 04:23:00,33.0,22.0,-100.00,ESE,113,2.0,4.0,64,0.00,,,0.00,,2013-10-19 10:23:00,
2013-10-19 04:32:00,33.0,22.0,-100.00,ESE,113,2.0,4.0,64,0.00,,,0.00,,2013-10-19 10:32:00,
2013-10-19 04:53:00,33.0,23.0,-100.00,SSE,152,4.0,6.0,68,0.00,,,0.00,,2013-10-19 10:53:00,
2013-10-19 05:02:00,33.0,23.0,-100.00,SSE,152,4.0,6.0,68,0.00,,,0.00,,2013-10-19 11:02:00,
2013-10-19 05:22:00,33.0,24.0,-100.00,ESE,120,5.0,8.0,69,0.00,,,0.00,,2013-10-19 11:22:00,
2013-10-19 05:33:00,33.0,24.0,-100.00,ESE,120,5.0,8.0,69,0.00,,,0.00,,2013-10-19 11:33:00,
2013-10-19 05:52:00,32.0,24.0,-100.00,SE,137,5.0,7.0,71,0.00,,,0.00,,2013-10-19 11:52:00,
2013-10-19 06:01:00,32.0,24.0,-100.00,SE,137,5.0,7.0,71,0.00,,,0.00,,2013-10-19 12:01:00,
2013-10-19 06:21:00,33.0,24.0,-100.00,SE,138,5.0,9.0,69,0.00,,,0.00,,2013-10-19 12:21:00,
2013-10-19 06:32:00,33.0,24.0,-100.00,SE,138,5.0,9.0,69,0.00,,,0.00,,2013-10-19 12:32:00,
2013-10-19 06:52:00,33.0,24.0,-100.00,SE,136,6.0,10.0,70,0.00,,,0.00,,2013-10-19 12:52:00,
2013-10-19 07:01:00,33.0,24.0,-100.00,SE,136,6.0,10.0,70,0.00,,,0.00,,2013-10-19 13:01:00,
2013-10-19 07:22:00,31.0,24.0,-100.00,SSE,167,6.0,11.0,73,0.00,,,0.00,,2013-10-19 13:22:00,
2013-10-19 07:32:00,31.0,24.0,-100.00,SSE,167,6.0,11.0,73,0.00,,,0.00,,2013-10-19 13:32:00,
2013-10-19 07:52:00,30.0,24.0,-100.00,SE,128,4.0,7.0,78,0.00,,,0.00,,2013-10-19 13:52:00,
2013-10-19 08:02:00,30.0,24.0,-100.00,SE,128,4.0,7.0,78,0.00,,,0.00,,2013-10-19 14:02:00,
2013-10-19 08:21:00,30.0,24.0,-100.00,SE,124,6.0,7.0,79,0.00,,,0.00,,2013-10-19 14:21:00,
2013-10-19 08:32:00,30.0,24.0,-100.00,SE,124,6.0,7.0,79,0.00,,,0.00,,2013-10-19 14:32:00,
2013-10-19 08:52:00,30.0,24.0,-100.00,SE,134,6.0,8.0,80,0.00,,,0.00,,2013-10-19 14:52:00,
2013-10-19 09:02:00,30.0,24.0,-100.00,SE,134,6.0,8.0,80,0.00,,,0.00,,2013-10-19 15:02:00,
2013-10-19 09:22:00,30.0,25.0,-100.00,ESE,121,6.0,8.0,80,0.00,,,0.00,,2013-10-19 15:22:00,
2013-10-19 09:34:00,30.0,25.0,-100.00,ESE,121,6.0,8.0,80,0.00,,,0.00,,2013-10-19 15:34:00,
2013-10-19 09:55:00,31.0,25.0,-100.00,SE,128,6.0,9.0,79,0.00,,,0.00,,2013-10-19 15:55:00,
2013-10-19 10:04:00,31.0,25.0,-100.00,SE,128,6.0,9.0,79,0.00,,,0.00,,2013-10-19 16:04:00,
2013-10-19 10:24:00,32.0,25.0,-100.00,ESE,120,8.0,10.0,75,0.00,,,0.00,,2013-10-19 16:24:00,
2013-10-19 10:33:00,32.0,25.0,-100.00,ESE,120,8.0,10.0,75,0.00,,,0.00,,2013-10-19 16:33:00,
2013-10-19 10:53:00,34.0,25.0,-100.00,ESE,123,7.0,9.0,70,0.00,,,0.00,,2013-10-19 16:53:00,
2013-10-19 11:03:00,34.0,25.0,-100.00,ESE,123,7.0,9.0,70,0.00,,,0.00,,2013-10-19 17:03:00,
2013-10-19 11:22:00,36.0,25.0,-100.00,ESE,121,8.0,9.0,65,0.00,,,0.00,,2013-10-19 17:22:00,
2013-10-19 11:34:00,36.0,25.0,-100.00,ESE,121,8.0,9.0,65,0.00,,,0.00,,2013-10-19 17:34:00,
2013-10-19 11:52:00,36.0,25.0,-100.00,ESE,117,6.0,9.0,64,0.00,,,0.00,,2013-10-19 17:52:00,
2013-10-19 12:02:00,36.0,25.0,-100.00,ESE,117,6.0,9.0,64,0.00,,,0.00,,2013-10-19 18:02:00,
2013-10-19 12:21:00,40.0,26.0,-100.00,ESE,123,6.0,8.0,58,0.00,,,0.00,,2013-10-19 18:21:00,
2013-10-19 12:32:00,40.0,26.0,-100.00,ESE,123,6.0,8.0,58,0.00,,,0.00,,2013-10-19 18:32:00,
2013-10-19 12:52:00,43.0,26.0,-100.00,SE,141,8.0,11.0,51,0.00,,,0.00,,2013-10-19 18:52:00,
2013-10-19 13:02:00,43.0,26.0,-100.00,SE,141,8.0,11.0,51,0.00,,,0.00,,2013-10-19 19:02:00,
2013-10-19 13:22:00,46.0,26.0,-100.00,SSE,155,6.0,9.0,45,0.00,,,0.00,,2013-10-19 19:22:00,
2013-10-19 13:32:00,46.0,26.0,-100.00,SSE,155,6.0,9.0,45,0.00,,,0.00,,2013-10-19 19:32:00,
2013-10-19 13:52:00,47.0,27.0,-100.00,SE,145,6.0,8.0,45,0.00,,,0.00,,2013-10-19 19:52:00,
2013-10-19 14:03:00,47.0,27.0,-100.00,SE,145,6.0,8.0,45,0.00,,,0.00,,2013-10-19 20:03:00,
2013-10-19 14:22:00,48.0,27.0,-100.00,SE,131,7.0,10.0,43,0.00,,,0.00,,2013-10-19 20:22:00,
2013-10-19 14:32:00,48.0,27.0,-100.00,SE,131,7.0,10.0,43,0.00,,,0.00,,2013-10-19 20:32:00,
2013-10-19 14:52:00,49.0,26.0,-100.00,ESE,123,7.0,10.0,41,0.00,,,0.00,,2013-10-19 20:52:00,
2013-10-19 15:02:00,49.0,26.0,-100.00,ESE,123,7.0,10.0,41,0.00,,,0.00,,2013-10-19 21:02:00,
2013-10-19 15:21:00,50.0,27.0,-100.00,SE,138,6.0,10.0,40,0.00,,,0.00,,2013-10-19 21:21:00,
2013-10-19 15:34:00,50.0,27.0,-100.00,SE,138,6.0,10.0,40,0.00,,,0.00,,2013-10-19 21:34:00,
2013-10-19 15:54:00,51.0,26.0,-100.00,SW,216,1.0,2.0,37,0.00,,,0.00,,2013-10-19 21:54:00,
2013-10-19 16:04:00,51.0,26.0,-100.00,SW,216,1.0,2.0,37,0.00,,,0.00,,2013-10-19 22:04:00,
2013-10-19 16:24:00,54.0,22.0,-100.00,West,281,4.0,6.0,29,0.00,,,0.00,,2013-10-19 22:24:00,
2013-10-19 16:34:00,54.0,22.0,-100.00,West,281,4.0,6.0,29,0.00,,,0.00,,2013-10-19 22:34:00,
2013-10-19 16:53:00,51.0,22.0,-100.00,West,278,5.0,9.0,31,0.00,,,0.00,,2013-10-19 22:53:00,
2013-10-19 17:03:00,51.0,22.0,-100.00,West,278,5.0,9.0,31,0.00,,,0.00,,2013-10-19 23:03:00,
2013-10-19 17:22:00,51.0,21.0,-100.00,WNW,287,5.0,12.0,31,0.00,,,0.00,,2013-10-19 23:22:00,
2013-10-19 17:34:00,51.0,21.0,-100.00,WNW,287,5.0,12.0,31,0.00,,,0.00,,2013-10-19 23:34:00,
2013-10-19 17:52:00,50.0,22.0,-100.00,West,278,4.0,6.0,32,0.00,,,0.00,,2013-10-19 23:52:00,
2013-10-19 18:02:00,50.0,22.0,-100.00,West,278,4.0,6.0,32,0.00,,,0.00,,2013-10-20 00:02:00,
2013-10-19 18:22:00,50.0,21.0,-100.00,WSW,240,3.0,6.0,32,0.00,,,0.00,,2013-10-20 00:22:00,
2013-10-19 18:32:00,50.0,21.0,-100.00,WSW,240,3.0,6.0,32,0.00,,,0.00,,2013-10-20 00:32:00,
2013-10-19 18:52:00,49.0,19.0,-100.00,WNW,294,4.0,6.0,30,0.00,,,0.00,,2013-10-20 00:52:00,
2013-10-19 19:02:00,49.0,19.0,-100.00,WNW,294,4.0,6.0,30,0.00,,,0.00,,2013-10-20 01:02:00,
2013-10-19 19:22:00,47.0,18.0,-100.00,WNW,288,4.0,9.0,30,0.00,,,0.00,,2013-10-20 01:22:00,
2013-10-19 19:32:00,47.0,18.0,-100.00,WNW,288,4.0,9.0,30,0.00,,,0.00,,2013-10-20 01:32:00,
2013-10-19 19:52:00,47.0,17.0,-100.00,NW,304,8.0,14.0,29,0.00,,,0.00,,2013-10-20 01:52:00,
2013-10-19 20:02:00,47.0,17.0,-100.00,NW,304,8.0,14.0,29,0.00,,,0.00,,2013-10-20 02:02:00,
2013-10-19 20:22:00,46.0,17.0,-100.00,West,274,5.0,10.0,30,0.00,,,0.00,,2013-10-20 02:22:00,
2013-10-19 20:32:00,46.0,17.0,-100.00,West,274,5.0,10.0,30,0.00,,,0.00,,2013-10-20 02:32:00,
2013-10-19 20:52:00,46.0,18.0,-100.00,West,265,6.0,11.0,33,0.00,,,0.00,,2013-10-20 02:52:00,
2013-10-19 21:02:00,46.0,18.0,-100.00,West,265,6.0,11.0,33,0.00,,,0.00,,2013-10-20 03:02:00,
2013-10-19 21:21:00,44.0,17.0,-100.00,West,281,6.0,10.0,33,0.00,,,0.00,,2013-10-20 03:21:00,
2013-10-19 21:34:00,44.0,17.0,-100.00,West,281,6.0,10.0,33,0.00,,,0.00,,2013-10-20 03:34:00,
2013-10-19 21:54:00,44.0,18.0,-100.00,WSW,248,4.0,9.0,35,0.00,,,0.00,,2013-10-20 03:54:00,
2013-10-19 22:02:00,-999.0,-99.9,-100.00,WSW,248,4.0,9.0,-999,-99.99,,,-99.99,,2013-10-20 04:02:00,
2013-10-19 22:24:00,43.0,15.0,-100.00,West,271,4.0,9.0,33,0.00,,,0.00,,2013-10-20 04:24:00,
2013-10-19 22:34:00,43.0,15.0,-100.00,West,271,4.0,9.0,33,0.00,,,0.00,,2013-10-20 04:34:00,
2013-10-19 22:54:00,42.0,15.0,-100.00,West,272,4.0,9.0,34,0.00,,,0.00,,2013-10-20 04:54:00,
2013-10-19 23:04:00,42.0,15.0,-100.00,West,272,4.0,9.0,34,0.00,,,0.00,,2013-10-20 05:04:00,
2013-10-19 23:23:00,40.0,17.0,-100.00,NW,304,2.0,4.0,38,0.00,,,0.00,,2013-10-20 05:23:00,
2013-10-19 23:34:00,40.0,17.0,-100.00,NW,304,2.0,4.0,38,0.00,,,0.00,,2013-10-20 05:34:00,
2013-10-19 23:52:00,37.0,19.0,-100.00,NNW,339,2.0,3.0,47,0.00,,,0.00,,2013-10-20 05:52:00,